sensor_id;sensor_type;location;lat;lon;timestamp;P1;durP1;ratioP1;P2;durP2;ratioP2
4053;SDS011;2042;47.956;9.222;2024-01-25T00:01:15;2.60;;;1.33;;
4053;SDS011;2042;47.956;9.222;2024-01-25T00:03:42;3.80;;;1.23;;
4053;SDS011;2042;47.956;9.222;2024-01-25T00:06:08;2.30;;;1.23;;
4053;SDS011;2042;47.956;9.222;2024-01-25T00:08:34;3.50;;;1.10;;
4053;SDS011;2042;47.956;9.222;2024-01-25T00:11:03;6.53;;;1.43;;
4053;SDS011;2042;47.956;9.222;2024-01-25T00:13:30;4.73;;;1.43;;
4053;SDS011;2042;47.956;9.222;2024-01-25T00:15:56;2.60;;;1.00;;
4053;SDS011;2042;47.956;9.222;2024-01-25T00:18:22;8.03;;;1.07;;
4053;SDS011;2042;47.956;9.222;2024-01-25T00:20:48;1.63;;;1.10;;
4053;SDS011;2042;47.956;9.222;2024-01-25T00:23:14;3.70;;;1.40;;
4053;SDS011;2042;47.956;9.222;2024-01-25T00:25:40;5.63;;;1.43;;
4053;SDS011;2042;47.956;9.222;2024-01-25T00:28:06;7.53;;;1.70;;
4053;SDS011;2042;47.956;9.222;2024-01-25T00:30:32;3.57;;;1.67;;
4053;SDS011;2042;47.956;9.222;2024-01-25T00:32:58;2.40;;;1.20;;
4053;SDS011;2042;47.956;9.222;2024-01-25T00:35:26;3.97;;;1.43;;
4053;SDS011;2042;47.956;9.222;2024-01-25T00:37:52;1.40;;;1.20;;
4053;SDS011;2042;47.956;9.222;2024-01-25T00:40:18;4.97;;;1.70;;
4053;SDS011;2042;47.956;9.222;2024-01-25T00:42:45;2.90;;;1.57;;
4053;SDS011;2042;47.956;9.222;2024-01-25T00:45:19;2.60;;;1.63;;
4053;SDS011;2042;47.956;9.222;2024-01-25T00:47:45;3.90;;;1.83;;
4053;SDS011;2042;47.956;9.222;2024-01-25T00:50:12;1.87;;;1.40;;
4053;SDS011;2042;47.956;9.222;2024-01-25T00:52:38;4.37;;;1.90;;
4053;SDS011;2042;47.956;9.222;2024-01-25T00:55:04;3.90;;;2.33;;
4053;SDS011;2042;47.956;9.222;2024-01-25T00:57:31;6.10;;;1.73;;
4053;SDS011;2042;47.956;9.222;2024-01-25T00:59:58;2.33;;;1.73;;
4053;SDS011;2042;47.956;9.222;2024-01-25T01:02:25;3.30;;;2.00;;
4053;SDS011;2042;47.956;9.222;2024-01-25T01:04:55;6.20;;;1.73;;
4053;SDS011;2042;47.956;9.222;2024-01-25T01:07:21;7.30;;;1.47;;
4053;SDS011;2042;47.956;9.222;2024-01-25T01:09:47;4.20;;;1.53;;
4053;SDS011;2042;47.956;9.222;2024-01-25T01:12:13;4.27;;;1.50;;
4053;SDS011;2042;47.956;9.222;2024-01-25T01:14:39;3.73;;;1.57;;
4053;SDS011;2042;47.956;9.222;2024-01-25T01:17:05;2.60;;;1.27;;
4053;SDS011;2042;47.956;9.222;2024-01-25T01:19:32;3.17;;;1.50;;
4053;SDS011;2042;47.956;9.222;2024-01-25T01:21:58;3.57;;;1.50;;
4053;SDS011;2042;47.956;9.222;2024-01-25T01:24:24;2.50;;;1.17;;
4053;SDS011;2042;47.956;9.222;2024-01-25T01:26:50;5.57;;;1.37;;
4053;SDS011;2042;47.956;9.222;2024-01-25T01:29:16;3.53;;;1.30;;
4053;SDS011;2042;47.956;9.222;2024-01-25T01:31:43;5.20;;;1.20;;
4053;SDS011;2042;47.956;9.222;2024-01-25T01:34:09;1.97;;;1.13;;
4053;SDS011;2042;47.956;9.222;2024-01-25T01:36:37;8.20;;;1.83;;
4053;SDS011;2042;47.956;9.222;2024-01-25T01:39:03;2.40;;;1.17;;
4053;SDS011;2042;47.956;9.222;2024-01-25T01:41:31;4.30;;;1.00;;
4053;SDS011;2042;47.956;9.222;2024-01-25T01:43:57;2.50;;;0.90;;
4053;SDS011;2042;47.956;9.222;2024-01-25T01:46:31;2.07;;;1.73;;
4053;SDS011;2042;47.956;9.222;2024-01-25T01:48:59;4.87;;;0.97;;
4053;SDS011;2042;47.956;9.222;2024-01-25T01:51:25;3.60;;;1.23;;
4053;SDS011;2042;47.956;9.222;2024-01-25T01:53:51;5.07;;;1.50;;
4053;SDS011;2042;47.956;9.222;2024-01-25T01:56:19;3.70;;;1.10;;
4053;SDS011;2042;47.956;9.222;2024-01-25T01:58:45;2.97;;;1.20;;
4053;SDS011;2042;47.956;9.222;2024-01-25T02:01:12;3.40;;;1.20;;
4053;SDS011;2042;47.956;9.222;2024-01-25T02:03:38;3.43;;;0.97;;
4053;SDS011;2042;47.956;9.222;2024-01-25T02:06:05;4.50;;;2.53;;
4053;SDS011;2042;47.956;9.222;2024-01-25T02:08:32;5.00;;;1.20;;
4053;SDS011;2042;47.956;9.222;2024-01-25T02:10:58;5.13;;;1.10;;
4053;SDS011;2042;47.956;9.222;2024-01-25T02:13:24;2.03;;;1.10;;
4053;SDS011;2042;47.956;9.222;2024-01-25T02:15:51;3.67;;;1.07;;
4053;SDS011;2042;47.956;9.222;2024-01-25T02:18:17;4.40;;;1.10;;
4053;SDS011;2042;47.956;9.222;2024-01-25T02:20:43;2.33;;;1.00;;
4053;SDS011;2042;47.956;9.222;2024-01-25T02:23:09;1.73;;;1.20;;
4053;SDS011;2042;47.956;9.222;2024-01-25T02:25:35;2.47;;;0.80;;
4053;SDS011;2042;47.956;9.222;2024-01-25T02:28:01;4.37;;;1.20;;
4053;SDS011;2042;47.956;9.222;2024-01-25T02:30:27;6.13;;;1.17;;
4053;SDS011;2042;47.956;9.222;2024-01-25T02:32:53;3.60;;;1.43;;
4053;SDS011;2042;47.956;9.222;2024-01-25T02:35:20;5.67;;;1.13;;
4053;SDS011;2042;47.956;9.222;2024-01-25T02:37:46;5.27;;;1.50;;
4053;SDS011;2042;47.956;9.222;2024-01-25T02:40:12;4.73;;;1.17;;
4053;SDS011;2042;47.956;9.222;2024-01-25T02:42:38;6.00;;;1.20;;
4053;SDS011;2042;47.956;9.222;2024-01-25T02:45:04;6.73;;;1.30;;
4053;SDS011;2042;47.956;9.222;2024-01-25T02:47:31;2.63;;;1.37;;
4053;SDS011;2042;47.956;9.222;2024-01-25T02:49:57;2.80;;;1.30;;
4053;SDS011;2042;47.956;9.222;2024-01-25T02:52:23;2.77;;;1.30;;
4053;SDS011;2042;47.956;9.222;2024-01-25T02:54:49;1.63;;;1.10;;
4053;SDS011;2042;47.956;9.222;2024-01-25T02:57:15;3.13;;;1.10;;
4053;SDS011;2042;47.956;9.222;2024-01-25T02:59:41;9.53;;;1.30;;
4053;SDS011;2042;47.956;9.222;2024-01-25T03:02:07;1.73;;;1.63;;
4053;SDS011;2042;47.956;9.222;2024-01-25T03:04:33;2.00;;;1.07;;
4053;SDS011;2042;47.956;9.222;2024-01-25T03:06:59;2.60;;;0.90;;
4053;SDS011;2042;47.956;9.222;2024-01-25T03:09:25;1.40;;;1.30;;
4053;SDS011;2042;47.956;9.222;2024-01-25T03:11:52;3.30;;;1.07;;
4053;SDS011;2042;47.956;9.222;2024-01-25T03:14:18;4.10;;;0.97;;
4053;SDS011;2042;47.956;9.222;2024-01-25T03:16:44;3.80;;;1.03;;
4053;SDS011;2042;47.956;9.222;2024-01-25T03:19:10;2.50;;;1.20;;
4053;SDS011;2042;47.956;9.222;2024-01-25T03:21:37;2.83;;;1.23;;
4053;SDS011;2042;47.956;9.222;2024-01-25T03:24:03;2.70;;;0.90;;
4053;SDS011;2042;47.956;9.222;2024-01-25T03:26:29;1.97;;;0.80;;
4053;SDS011;2042;47.956;9.222;2024-01-25T03:28:55;1.43;;;0.97;;
4053;SDS011;2042;47.956;9.222;2024-01-25T03:31:21;2.63;;;1.10;;
4053;SDS011;2042;47.956;9.222;2024-01-25T03:33:47;4.70;;;1.43;;
4053;SDS011;2042;47.956;9.222;2024-01-25T03:36:14;7.07;;;1.03;;
4053;SDS011;2042;47.956;9.222;2024-01-25T03:38:43;1.73;;;0.90;;
4053;SDS011;2042;47.956;9.222;2024-01-25T03:41:09;1.80;;;1.03;;
4053;SDS011;2042;47.956;9.222;2024-01-25T03:43:35;2.17;;;1.10;;
4053;SDS011;2042;47.956;9.222;2024-01-25T03:46:01;1.77;;;0.90;;
4053;SDS011;2042;47.956;9.222;2024-01-25T03:48:31;4.90;;;1.00;;
4053;SDS011;2042;47.956;9.222;2024-01-25T03:50:57;1.57;;;1.07;;
4053;SDS011;2042;47.956;9.222;2024-01-25T03:53:23;2.00;;;0.80;;
4053;SDS011;2042;47.956;9.222;2024-01-25T03:55:49;3.23;;;1.17;;
4053;SDS011;2042;47.956;9.222;2024-01-25T03:58:16;1.07;;;0.80;;
4053;SDS011;2042;47.956;9.222;2024-01-25T04:00:45;1.40;;;1.10;;
4053;SDS011;2042;47.956;9.222;2024-01-25T04:03:11;1.93;;;1.07;;
4053;SDS011;2042;47.956;9.222;2024-01-25T04:05:37;4.70;;;0.97;;
4053;SDS011;2042;47.956;9.222;2024-01-25T04:08:06;9.70;;;1.40;;
4053;SDS011;2042;47.956;9.222;2024-01-25T04:10:32;2.00;;;1.10;;
4053;SDS011;2042;47.956;9.222;2024-01-25T04:12:58;5.57;;;1.20;;
4053;SDS011;2042;47.956;9.222;2024-01-25T04:15:29;3.23;;;1.00;;
4053;SDS011;2042;47.956;9.222;2024-01-25T04:17:55;3.20;;;1.00;;
4053;SDS011;2042;47.956;9.222;2024-01-25T04:20:22;8.80;;;1.30;;
4053;SDS011;2042;47.956;9.222;2024-01-25T04:22:48;1.33;;;0.97;;
4053;SDS011;2042;47.956;9.222;2024-01-25T04:25:15;1.77;;;0.80;;
4053;SDS011;2042;47.956;9.222;2024-01-25T04:27:41;3.80;;;1.10;;
4053;SDS011;2042;47.956;9.222;2024-01-25T04:30:07;5.23;;;1.00;;
4053;SDS011;2042;47.956;9.222;2024-01-25T04:32:34;5.43;;;1.17;;
4053;SDS011;2042;47.956;9.222;2024-01-25T04:35:00;2.50;;;0.90;;
4053;SDS011;2042;47.956;9.222;2024-01-25T04:37:26;1.30;;;0.63;;
4053;SDS011;2042;47.956;9.222;2024-01-25T04:39:52;1.83;;;0.70;;
4053;SDS011;2042;47.956;9.222;2024-01-25T04:42:18;3.37;;;0.90;;
4053;SDS011;2042;47.956;9.222;2024-01-25T04:44:44;2.40;;;1.20;;
4053;SDS011;2042;47.956;9.222;2024-01-25T04:47:10;8.93;;;2.63;;
4053;SDS011;2042;47.956;9.222;2024-01-25T04:49:36;2.10;;;1.60;;
4053;SDS011;2042;47.956;9.222;2024-01-25T04:52:03;3.90;;;1.27;;
4053;SDS011;2042;47.956;9.222;2024-01-25T04:54:29;4.20;;;1.37;;
4053;SDS011;2042;47.956;9.222;2024-01-25T04:56:55;2.50;;;1.20;;
4053;SDS011;2042;47.956;9.222;2024-01-25T04:59:21;2.67;;;1.20;;
4053;SDS011;2042;47.956;9.222;2024-01-25T05:01:47;1.10;;;0.90;;
4053;SDS011;2042;47.956;9.222;2024-01-25T05:04:13;9.43;;;1.50;;
4053;SDS011;2042;47.956;9.222;2024-01-25T05:06:39;5.90;;;1.13;;
4053;SDS011;2042;47.956;9.222;2024-01-25T05:09:05;2.70;;;1.00;;
4053;SDS011;2042;47.956;9.222;2024-01-25T05:11:33;6.93;;;1.17;;
4053;SDS011;2042;47.956;9.222;2024-01-25T05:13:59;1.83;;;1.00;;
4053;SDS011;2042;47.956;9.222;2024-01-25T05:16:25;2.93;;;0.97;;
4053;SDS011;2042;47.956;9.222;2024-01-25T05:18:51;2.13;;;1.00;;
4053;SDS011;2042;47.956;9.222;2024-01-25T05:21:17;2.40;;;0.93;;
4053;SDS011;2042;47.956;9.222;2024-01-25T05:23:44;2.20;;;0.90;;
4053;SDS011;2042;47.956;9.222;2024-01-25T05:26:10;1.60;;;0.90;;
4053;SDS011;2042;47.956;9.222;2024-01-25T05:28:36;1.50;;;0.90;;
4053;SDS011;2042;47.956;9.222;2024-01-25T05:31:02;0.90;;;0.60;;
4053;SDS011;2042;47.956;9.222;2024-01-25T05:33:28;8.37;;;1.00;;
4053;SDS011;2042;47.956;9.222;2024-01-25T05:35:54;4.40;;;1.00;;
4053;SDS011;2042;47.956;9.222;2024-01-25T05:38:20;1.90;;;0.83;;
4053;SDS011;2042;47.956;9.222;2024-01-25T05:40:46;7.07;;;0.80;;
4053;SDS011;2042;47.956;9.222;2024-01-25T05:43:12;1.90;;;1.50;;
4053;SDS011;2042;47.956;9.222;2024-01-25T05:45:38;1.07;;;0.87;;
4053;SDS011;2042;47.956;9.222;2024-01-25T05:48:04;1.40;;;0.80;;
4053;SDS011;2042;47.956;9.222;2024-01-25T05:50:31;1.67;;;0.87;;
4053;SDS011;2042;47.956;9.222;2024-01-25T05:52:58;2.60;;;0.90;;
4053;SDS011;2042;47.956;9.222;2024-01-25T05:55:24;1.30;;;0.80;;
4053;SDS011;2042;47.956;9.222;2024-01-25T05:57:50;2.30;;;0.80;;
4053;SDS011;2042;47.956;9.222;2024-01-25T06:00:16;1.63;;;0.97;;
4053;SDS011;2042;47.956;9.222;2024-01-25T06:02:42;0.93;;;0.80;;
4053;SDS011;2042;47.956;9.222;2024-01-25T06:05:08;2.73;;;1.03;;
4053;SDS011;2042;47.956;9.222;2024-01-25T06:07:35;2.60;;;0.70;;
4053;SDS011;2042;47.956;9.222;2024-01-25T06:10:01;1.10;;;0.77;;
4053;SDS011;2042;47.956;9.222;2024-01-25T06:12:27;1.10;;;0.50;;
4053;SDS011;2042;47.956;9.222;2024-01-25T06:14:53;0.70;;;0.60;;
4053;SDS011;2042;47.956;9.222;2024-01-25T06:17:19;0.70;;;0.60;;
4053;SDS011;2042;47.956;9.222;2024-01-25T06:19:45;0.60;;;0.40;;
4053;SDS011;2042;47.956;9.222;2024-01-25T06:22:11;2.33;;;0.63;;
4053;SDS011;2042;47.956;9.222;2024-01-25T06:24:38;1.23;;;0.57;;
4053;SDS011;2042;47.956;9.222;2024-01-25T06:27:04;1.30;;;0.50;;
4053;SDS011;2042;47.956;9.222;2024-01-25T06:29:30;1.60;;;0.70;;
4053;SDS011;2042;47.956;9.222;2024-01-25T06:31:56;1.10;;;0.60;;
4053;SDS011;2042;47.956;9.222;2024-01-25T06:34:22;1.40;;;0.67;;
4053;SDS011;2042;47.956;9.222;2024-01-25T06:36:48;0.70;;;0.50;;
4053;SDS011;2042;47.956;9.222;2024-01-25T06:39:14;0.90;;;0.77;;
4053;SDS011;2042;47.956;9.222;2024-01-25T06:41:40;1.17;;;0.70;;
4053;SDS011;2042;47.956;9.222;2024-01-25T06:44:06;0.70;;;0.60;;
4053;SDS011;2042;47.956;9.222;2024-01-25T06:46:33;1.63;;;0.80;;
4053;SDS011;2042;47.956;9.222;2024-01-25T06:48:59;0.80;;;0.70;;
4053;SDS011;2042;47.956;9.222;2024-01-25T06:51:25;2.40;;;0.50;;
4053;SDS011;2042;47.956;9.222;2024-01-25T06:53:51;0.70;;;0.57;;
4053;SDS011;2042;47.956;9.222;2024-01-25T06:56:17;0.93;;;0.63;;
4053;SDS011;2042;47.956;9.222;2024-01-25T06:58:43;1.80;;;0.50;;
4053;SDS011;2042;47.956;9.222;2024-01-25T07:01:09;1.00;;;0.50;;
4053;SDS011;2042;47.956;9.222;2024-01-25T07:03:35;1.03;;;0.70;;
4053;SDS011;2042;47.956;9.222;2024-01-25T07:06:01;1.63;;;0.50;;
4053;SDS011;2042;47.956;9.222;2024-01-25T07:08:28;2.10;;;0.70;;
4053;SDS011;2042;47.956;9.222;2024-01-25T07:10:54;1.23;;;0.67;;
4053;SDS011;2042;47.956;9.222;2024-01-25T07:13:21;0.70;;;0.60;;
4053;SDS011;2042;47.956;9.222;2024-01-25T07:15:47;0.90;;;0.60;;
4053;SDS011;2042;47.956;9.222;2024-01-25T07:18:13;0.90;;;0.60;;
4053;SDS011;2042;47.956;9.222;2024-01-25T07:20:40;3.27;;;0.80;;
4053;SDS011;2042;47.956;9.222;2024-01-25T07:23:06;0.70;;;0.57;;
4053;SDS011;2042;47.956;9.222;2024-01-25T07:25:33;1.13;;;0.70;;
4053;SDS011;2042;47.956;9.222;2024-01-25T07:27:59;0.70;;;0.70;;
4053;SDS011;2042;47.956;9.222;2024-01-25T07:30:25;0.73;;;0.53;;
4053;SDS011;2042;47.956;9.222;2024-01-25T07:32:51;2.00;;;0.70;;
4053;SDS011;2042;47.956;9.222;2024-01-25T07:35:17;0.70;;;0.70;;
4053;SDS011;2042;47.956;9.222;2024-01-25T07:37:43;0.80;;;0.57;;
4053;SDS011;2042;47.956;9.222;2024-01-25T07:40:09;1.83;;;0.87;;
4053;SDS011;2042;47.956;9.222;2024-01-25T07:42:35;3.17;;;1.00;;
4053;SDS011;2042;47.956;9.222;2024-01-25T07:45:02;0.77;;;0.67;;
4053;SDS011;2042;47.956;9.222;2024-01-25T07:47:28;0.80;;;0.67;;
4053;SDS011;2042;47.956;9.222;2024-01-25T07:49:55;0.80;;;0.70;;
4053;SDS011;2042;47.956;9.222;2024-01-25T07:52:21;1.27;;;0.67;;
4053;SDS011;2042;47.956;9.222;2024-01-25T07:54:47;0.97;;;0.60;;
4053;SDS011;2042;47.956;9.222;2024-01-25T07:57:13;2.07;;;1.20;;
4053;SDS011;2042;47.956;9.222;2024-01-25T07:59:39;0.60;;;0.50;;
4053;SDS011;2042;47.956;9.222;2024-01-25T08:02:05;0.60;;;0.50;;
4053;SDS011;2042;47.956;9.222;2024-01-25T08:04:31;0.90;;;0.70;;
4053;SDS011;2042;47.956;9.222;2024-01-25T08:06:58;0.60;;;0.50;;
4053;SDS011;2042;47.956;9.222;2024-01-25T08:09:24;1.07;;;0.97;;
4053;SDS011;2042;47.956;9.222;2024-01-25T08:11:50;0.70;;;0.60;;
4053;SDS011;2042;47.956;9.222;2024-01-25T08:14:16;1.20;;;0.60;;
4053;SDS011;2042;47.956;9.222;2024-01-25T08:16:42;0.67;;;0.60;;
4053;SDS011;2042;47.956;9.222;2024-01-25T08:19:08;1.53;;;0.50;;
4053;SDS011;2042;47.956;9.222;2024-01-25T08:21:34;1.00;;;0.50;;
4053;SDS011;2042;47.956;9.222;2024-01-25T08:24:01;0.60;;;0.40;;
4053;SDS011;2042;47.956;9.222;2024-01-25T08:26:27;1.10;;;0.57;;
4053;SDS011;2042;47.956;9.222;2024-01-25T08:28:53;0.60;;;0.50;;
4053;SDS011;2042;47.956;9.222;2024-01-25T08:31:19;0.70;;;0.60;;
4053;SDS011;2042;47.956;9.222;2024-01-25T08:33:45;0.87;;;0.60;;
4053;SDS011;2042;47.956;9.222;2024-01-25T08:36:18;1.37;;;0.60;;
4053;SDS011;2042;47.956;9.222;2024-01-25T08:38:44;0.90;;;0.50;;
4053;SDS011;2042;47.956;9.222;2024-01-25T08:41:10;1.67;;;0.50;;
4053;SDS011;2042;47.956;9.222;2024-01-25T08:43:39;1.00;;;0.50;;
4053;SDS011;2042;47.956;9.222;2024-01-25T08:46:05;1.70;;;0.60;;
4053;SDS011;2042;47.956;9.222;2024-01-25T08:48:31;0.80;;;0.60;;
4053;SDS011;2042;47.956;9.222;2024-01-25T08:50:57;0.90;;;0.70;;
4053;SDS011;2042;47.956;9.222;2024-01-25T08:53:23;1.00;;;0.90;;
4053;SDS011;2042;47.956;9.222;2024-01-25T08:55:53;1.03;;;0.70;;
4053;SDS011;2042;47.956;9.222;2024-01-25T08:58:19;1.20;;;1.10;;
4053;SDS011;2042;47.956;9.222;2024-01-25T09:00:45;0.70;;;0.53;;
4053;SDS011;2042;47.956;9.222;2024-01-25T09:03:12;1.23;;;0.90;;
4053;SDS011;2042;47.956;9.222;2024-01-25T09:05:38;0.60;;;0.50;;
4053;SDS011;2042;47.956;9.222;2024-01-25T09:08:09;3.10;;;0.67;;
4053;SDS011;2042;47.956;9.222;2024-01-25T09:10:36;2.70;;;0.77;;
4053;SDS011;2042;47.956;9.222;2024-01-25T09:13:02;2.90;;;1.07;;
4053;SDS011;2042;47.956;9.222;2024-01-25T09:15:28;2.30;;;1.00;;
4053;SDS011;2042;47.956;9.222;2024-01-25T09:17:54;1.00;;;0.50;;
4053;SDS011;2042;47.956;9.222;2024-01-25T09:20:20;1.47;;;1.20;;
4053;SDS011;2042;47.956;9.222;2024-01-25T09:22:46;1.93;;;1.00;;
4053;SDS011;2042;47.956;9.222;2024-01-25T09:25:12;1.43;;;0.90;;
4053;SDS011;2042;47.956;9.222;2024-01-25T09:27:38;1.97;;;0.90;;
4053;SDS011;2042;47.956;9.222;2024-01-25T09:30:05;1.93;;;0.70;;
4053;SDS011;2042;47.956;9.222;2024-01-25T09:32:31;2.47;;;0.90;;
4053;SDS011;2042;47.956;9.222;2024-01-25T09:34:57;4.20;;;0.97;;
4053;SDS011;2042;47.956;9.222;2024-01-25T09:37:23;3.13;;;1.10;;
4053;SDS011;2042;47.956;9.222;2024-01-25T09:39:49;4.23;;;1.53;;
4053;SDS011;2042;47.956;9.222;2024-01-25T09:42:16;7.13;;;1.30;;
4053;SDS011;2042;47.956;9.222;2024-01-25T09:44:43;0.97;;;0.80;;
4053;SDS011;2042;47.956;9.222;2024-01-25T09:47:09;3.00;;;1.10;;
4053;SDS011;2042;47.956;9.222;2024-01-25T09:49:36;1.00;;;0.70;;
4053;SDS011;2042;47.956;9.222;2024-01-25T09:52:02;2.87;;;1.10;;
4053;SDS011;2042;47.956;9.222;2024-01-25T09:54:36;2.87;;;1.53;;
4053;SDS011;2042;47.956;9.222;2024-01-25T09:57:07;2.83;;;1.00;;
4053;SDS011;2042;47.956;9.222;2024-01-25T09:59:34;4.20;;;1.03;;
4053;SDS011;2042;47.956;9.222;2024-01-25T10:02:01;3.43;;;1.00;;
4053;SDS011;2042;47.956;9.222;2024-01-25T10:04:27;4.30;;;0.80;;
4053;SDS011;2042;47.956;9.222;2024-01-25T10:06:56;3.63;;;1.00;;
4053;SDS011;2042;47.956;9.222;2024-01-25T10:09:22;2.30;;;1.00;;
4053;SDS011;2042;47.956;9.222;2024-01-25T10:11:48;2.70;;;0.83;;
4053;SDS011;2042;47.956;9.222;2024-01-25T10:14:14;1.57;;;1.10;;
4053;SDS011;2042;47.956;9.222;2024-01-25T10:16:40;2.90;;;0.97;;
4053;SDS011;2042;47.956;9.222;2024-01-25T10:19:06;1.87;;;0.90;;
4053;SDS011;2042;47.956;9.222;2024-01-25T10:21:32;2.50;;;0.80;;
4053;SDS011;2042;47.956;9.222;2024-01-25T10:24:00;3.37;;;0.80;;
4053;SDS011;2042;47.956;9.222;2024-01-25T10:26:27;1.40;;;0.90;;
4053;SDS011;2042;47.956;9.222;2024-01-25T10:28:54;2.70;;;1.17;;
4053;SDS011;2042;47.956;9.222;2024-01-25T10:31:23;4.57;;;1.13;;
4053;SDS011;2042;47.956;9.222;2024-01-25T10:33:52;2.50;;;1.00;;
4053;SDS011;2042;47.956;9.222;2024-01-25T10:36:21;5.80;;;0.87;;
4053;SDS011;2042;47.956;9.222;2024-01-25T10:38:48;2.47;;;1.20;;
4053;SDS011;2042;47.956;9.222;2024-01-25T10:41:17;4.93;;;1.23;;
4053;SDS011;2042;47.956;9.222;2024-01-25T10:43:44;1.27;;;0.87;;
4053;SDS011;2042;47.956;9.222;2024-01-25T10:46:11;7.93;;;1.50;;
4053;SDS011;2042;47.956;9.222;2024-01-25T10:48:37;4.17;;;0.93;;
4053;SDS011;2042;47.956;9.222;2024-01-25T10:51:04;1.17;;;0.70;;
4053;SDS011;2042;47.956;9.222;2024-01-25T10:53:33;2.57;;;1.00;;
4053;SDS011;2042;47.956;9.222;2024-01-25T10:56:00;1.53;;;0.87;;
4053;SDS011;2042;47.956;9.222;2024-01-25T10:58:33;1.40;;;0.80;;
4053;SDS011;2042;47.956;9.222;2024-01-25T11:01:02;1.00;;;0.80;;
4053;SDS011;2042;47.956;9.222;2024-01-25T11:03:29;1.63;;;0.73;;
4053;SDS011;2042;47.956;9.222;2024-01-25T11:06:10;1.00;;;0.90;;
4053;SDS011;2042;47.956;9.222;2024-01-25T11:08:37;4.20;;;1.43;;
4053;SDS011;2042;47.956;9.222;2024-01-25T11:11:07;1.50;;;1.10;;
4053;SDS011;2042;47.956;9.222;2024-01-25T11:13:34;5.60;;;1.43;;
4053;SDS011;2042;47.956;9.222;2024-01-25T11:16:13;2.07;;;0.90;;
4053;SDS011;2042;47.956;9.222;2024-01-25T11:18:53;2.73;;;1.30;;
4053;SDS011;2042;47.956;9.222;2024-01-25T11:21:24;2.07;;;0.90;;
4053;SDS011;2042;47.956;9.222;2024-01-25T11:23:58;2.13;;;0.97;;
4053;SDS011;2042;47.956;9.222;2024-01-25T11:26:25;1.83;;;1.30;;
4053;SDS011;2042;47.956;9.222;2024-01-25T11:28:51;3.43;;;1.03;;
4053;SDS011;2042;47.956;9.222;2024-01-25T11:31:18;2.20;;;0.93;;
4053;SDS011;2042;47.956;9.222;2024-01-25T11:33:44;3.80;;;1.50;;
4053;SDS011;2042;47.956;9.222;2024-01-25T11:36:10;3.23;;;1.47;;
4053;SDS011;2042;47.956;9.222;2024-01-25T11:38:36;2.63;;;1.13;;
4053;SDS011;2042;47.956;9.222;2024-01-25T11:41:02;2.23;;;0.90;;
4053;SDS011;2042;47.956;9.222;2024-01-25T11:43:28;2.77;;;0.97;;
4053;SDS011;2042;47.956;9.222;2024-01-25T11:45:54;1.03;;;0.90;;
4053;SDS011;2042;47.956;9.222;2024-01-25T11:48:20;2.40;;;1.27;;
4053;SDS011;2042;47.956;9.222;2024-01-25T11:50:46;2.43;;;1.07;;
4053;SDS011;2042;47.956;9.222;2024-01-25T11:53:13;2.40;;;1.20;;
4053;SDS011;2042;47.956;9.222;2024-01-25T11:55:39;4.40;;;0.87;;
4053;SDS011;2042;47.956;9.222;2024-01-25T11:58:06;1.67;;;0.90;;
4053;SDS011;2042;47.956;9.222;2024-01-25T12:00:32;1.57;;;1.00;;
4053;SDS011;2042;47.956;9.222;2024-01-25T12:02:58;1.63;;;0.97;;
4053;SDS011;2042;47.956;9.222;2024-01-25T12:05:24;1.57;;;1.00;;
4053;SDS011;2042;47.956;9.222;2024-01-25T12:07:51;5.20;;;1.00;;
4053;SDS011;2042;47.956;9.222;2024-01-25T12:10:17;1.80;;;0.90;;
4053;SDS011;2042;47.956;9.222;2024-01-25T12:12:43;2.10;;;0.80;;
4053;SDS011;2042;47.956;9.222;2024-01-25T12:15:09;0.90;;;0.70;;
4053;SDS011;2042;47.956;9.222;2024-01-25T12:17:36;2.63;;;1.00;;
4053;SDS011;2042;47.956;9.222;2024-01-25T12:20:03;1.17;;;0.90;;
4053;SDS011;2042;47.956;9.222;2024-01-25T12:22:35;4.47;;;1.27;;
4053;SDS011;2042;47.956;9.222;2024-01-25T12:25:02;1.30;;;1.10;;
4053;SDS011;2042;47.956;9.222;2024-01-25T12:27:28;2.67;;;1.70;;
4053;SDS011;2042;47.956;9.222;2024-01-25T12:29:55;2.53;;;1.30;;
4053;SDS011;2042;47.956;9.222;2024-01-25T12:32:22;1.77;;;1.60;;
4053;SDS011;2042;47.956;9.222;2024-01-25T12:37:20;10.50;;;2.20;;
4053;SDS011;2042;47.956;9.222;2024-01-25T12:39:46;10.93;;;1.80;;
4053;SDS011;2042;47.956;9.222;2024-01-25T12:42:12;2.10;;;1.73;;
4053;SDS011;2042;47.956;9.222;2024-01-25T12:44:39;1.73;;;1.57;;
4053;SDS011;2042;47.956;9.222;2024-01-25T12:47:05;2.73;;;1.83;;
4053;SDS011;2042;47.956;9.222;2024-01-25T12:49:34;2.80;;;2.50;;
4053;SDS011;2042;47.956;9.222;2024-01-25T12:52:00;1.67;;;1.57;;
4053;SDS011;2042;47.956;9.222;2024-01-25T12:54:26;1.97;;;1.80;;
4053;SDS011;2042;47.956;9.222;2024-01-25T12:56:53;3.50;;;2.20;;
4053;SDS011;2042;47.956;9.222;2024-01-25T12:59:20;2.73;;;2.53;;
4053;SDS011;2042;47.956;9.222;2024-01-25T13:01:46;2.17;;;1.80;;
4053;SDS011;2042;47.956;9.222;2024-01-25T13:04:12;4.43;;;4.13;;
4053;SDS011;2042;47.956;9.222;2024-01-25T13:06:38;2.13;;;1.97;;
4053;SDS011;2042;47.956;9.222;2024-01-25T13:09:04;2.40;;;2.20;;
4053;SDS011;2042;47.956;9.222;2024-01-25T13:11:31;2.50;;;2.30;;
4053;SDS011;2042;47.956;9.222;2024-01-25T13:13:57;2.20;;;2.10;;
4053;SDS011;2042;47.956;9.222;2024-01-25T13:16:23;2.40;;;2.20;;
4053;SDS011;2042;47.956;9.222;2024-01-25T13:18:49;2.60;;;2.40;;
4053;SDS011;2042;47.956;9.222;2024-01-25T13:21:15;2.87;;;2.23;;
4053;SDS011;2042;47.956;9.222;2024-01-25T13:23:41;2.40;;;2.20;;
4053;SDS011;2042;47.956;9.222;2024-01-25T13:26:07;3.83;;;2.60;;
4053;SDS011;2042;47.956;9.222;2024-01-25T13:28:33;2.60;;;2.03;;
4053;SDS011;2042;47.956;9.222;2024-01-25T13:30:59;2.37;;;2.17;;
4053;SDS011;2042;47.956;9.222;2024-01-25T13:33:25;2.87;;;2.03;;
4053;SDS011;2042;47.956;9.222;2024-01-25T13:35:51;2.73;;;2.53;;
4053;SDS011;2042;47.956;9.222;2024-01-25T13:38:17;2.40;;;2.20;;
4053;SDS011;2042;47.956;9.222;2024-01-25T13:40:43;1.90;;;1.70;;
4053;SDS011;2042;47.956;9.222;2024-01-25T13:43:09;2.47;;;2.10;;
4053;SDS011;2042;47.956;9.222;2024-01-25T13:45:35;2.57;;;2.13;;
4053;SDS011;2042;47.956;9.222;2024-01-25T13:48:01;3.20;;;2.90;;
4053;SDS011;2042;47.956;9.222;2024-01-25T13:50:27;4.10;;;2.23;;
4053;SDS011;2042;47.956;9.222;2024-01-25T13:52:53;1.93;;;1.73;;
4053;SDS011;2042;47.956;9.222;2024-01-25T13:55:20;1.97;;;1.73;;
4053;SDS011;2042;47.956;9.222;2024-01-25T13:57:46;2.40;;;2.20;;
4053;SDS011;2042;47.956;9.222;2024-01-25T14:00:12;2.37;;;2.00;;
4053;SDS011;2042;47.956;9.222;2024-01-25T14:02:39;3.10;;;1.97;;
4053;SDS011;2042;47.956;9.222;2024-01-25T14:05:10;2.10;;;1.90;;
4053;SDS011;2042;47.956;9.222;2024-01-25T14:07:36;2.13;;;1.93;;
4053;SDS011;2042;47.956;9.222;2024-01-25T14:10:02;1.77;;;1.67;;
4053;SDS011;2042;47.956;9.222;2024-01-25T14:12:28;2.03;;;1.83;;
4053;SDS011;2042;47.956;9.222;2024-01-25T14:14:54;1.87;;;1.67;;
4053;SDS011;2042;47.956;9.222;2024-01-25T14:17:20;3.03;;;2.70;;
4053;SDS011;2042;47.956;9.222;2024-01-25T14:19:46;2.30;;;2.10;;
4053;SDS011;2042;47.956;9.222;2024-01-25T14:22:12;3.13;;;2.33;;
4053;SDS011;2042;47.956;9.222;2024-01-25T14:24:38;2.20;;;2.00;;
4053;SDS011;2042;47.956;9.222;2024-01-25T14:27:04;2.53;;;2.13;;
4053;SDS011;2042;47.956;9.222;2024-01-25T14:29:30;2.40;;;1.57;;
4053;SDS011;2042;47.956;9.222;2024-01-25T14:31:58;1.93;;;1.77;;
4053;SDS011;2042;47.956;9.222;2024-01-25T14:34:24;2.97;;;2.30;;
4053;SDS011;2042;47.956;9.222;2024-01-25T14:36:50;2.33;;;2.13;;
4053;SDS011;2042;47.956;9.222;2024-01-25T14:39:16;2.10;;;2.00;;
4053;SDS011;2042;47.956;9.222;2024-01-25T14:41:43;2.53;;;2.33;;
4053;SDS011;2042;47.956;9.222;2024-01-25T14:44:09;2.30;;;2.10;;
4053;SDS011;2042;47.956;9.222;2024-01-25T14:46:36;2.40;;;1.93;;
4053;SDS011;2042;47.956;9.222;2024-01-25T14:49:02;2.67;;;2.23;;
4053;SDS011;2042;47.956;9.222;2024-01-25T14:51:28;2.37;;;2.07;;
4053;SDS011;2042;47.956;9.222;2024-01-25T14:53:54;2.10;;;1.90;;
4053;SDS011;2042;47.956;9.222;2024-01-25T14:56:20;2.27;;;1.97;;
4053;SDS011;2042;47.956;9.222;2024-01-25T14:58:46;12.77;;;2.17;;
4053;SDS011;2042;47.956;9.222;2024-01-25T15:01:16;2.93;;;2.67;;
4053;SDS011;2042;47.956;9.222;2024-01-25T15:03:46;3.20;;;2.67;;
4053;SDS011;2042;47.956;9.222;2024-01-25T15:06:13;2.97;;;2.60;;
4053;SDS011;2042;47.956;9.222;2024-01-25T15:08:39;3.73;;;2.43;;
4053;SDS011;2042;47.956;9.222;2024-01-25T15:11:06;3.13;;;2.93;;
4053;SDS011;2042;47.956;9.222;2024-01-25T15:13:32;3.10;;;2.80;;